createdAt,value
2022-10-11T00:00:57.245Z,97730.97
2022-10-11T00:03:36.958Z,97737.25
2022-10-11T00:06:17.435Z,97735.56
2022-10-11T00:08:58.253Z,97733.91
2022-10-11T00:11:38.162Z,97734.75
2022-10-11T00:14:20.427Z,97730.56
2022-10-11T00:17:01.010Z,97737.53
2022-10-11T00:19:42.521Z,97735.88
2022-10-11T00:22:23.747Z,97730.69
2022-10-11T00:25:03.544Z,97729.03
2022-10-11T00:27:45.484Z,97728.19
2022-10-11T00:30:26.263Z,97734.47
2022-10-11T00:33:06.108Z,97732.66
2022-10-11T00:35:45.976Z,97733.63
2022-10-11T00:38:25.637Z,97730.16
2022-10-11T00:41:05.893Z,97731.97
2022-10-11T00:43:46.996Z,97732.94
2022-10-11T00:46:32.472Z,97727.63
2022-10-11T00:49:21.035Z,97734.75
2022-10-11T00:52:02.960Z,97727.78
2022-10-11T00:54:45.036Z,97734.06
2022-10-11T00:57:26.545Z,97729.75
2022-10-11T01:00:10.976Z,97717.47
2022-10-11T01:02:51.638Z,97726.25
2022-10-11T01:05:33.299Z,97729.03
2022-10-11T01:08:13.937Z,97730.88
2022-10-11T01:10:54.103Z,97727.38
2022-10-11T01:13:47.098Z,97720.41
2022-10-11T01:16:31.949Z,97724.88
2022-10-11T01:19:25.992Z,97722.34
2022-10-11T01:22:21.871Z,97719.69
2022-10-11T01:25:15.848Z,97726.81
2022-10-11T01:28:16.153Z,97730.44
2022-10-11T01:31:04.297Z,97725.28
2022-10-11T01:33:55.564Z,97735.06
2022-10-11T01:36:41.181Z,97739.38
2022-10-11T01:39:25.612Z,97731.56
2022-10-11T01:42:07.611Z,97734.50
2022-10-11T01:44:50.084Z,97734.38
2022-10-11T01:47:33.295Z,97737.16
2022-10-11T01:50:39.452Z,97742.31
2022-10-11T01:53:38.933Z,97736.19
2022-10-11T01:56:32.902Z,97737.03
2022-10-11T01:59:28.419Z,97737.16
2022-10-11T02:02:15.525Z,97737.16
2022-10-11T02:05:03.198Z,97744.28
2022-10-11T02:07:46.628Z,97738.97
2022-10-11T02:10:31.876Z,97741.78
2022-10-11T02:13:15.114Z,97736.75
2022-10-11T02:15:55.286Z,97739.41
2022-10-11T02:18:40.454Z,97727.13
2022-10-11T02:21:23.077Z,97738.72
2022-10-11T02:24:08.939Z,97735.63
2022-10-11T02:26:52.895Z,97730.91
2022-10-11T02:29:35.360Z,97744.84
2022-10-11T02:32:17.835Z,97737.88
2022-10-11T02:35:00.305Z,97732.56
2022-10-11T02:37:43.570Z,97736.06
2022-10-11T02:40:26.791Z,97731.88
2022-10-11T02:43:12.206Z,97731.72
2022-10-11T02:45:55.823Z,97724.75
2022-10-11T02:48:36.321Z,97728.38
2022-10-11T02:51:18.542Z,97727.53
2022-10-11T02:53:58.564Z,97724.06
2022-10-11T02:56:38.354Z,97721.41
2022-10-11T02:59:18.016Z,97720.56
2022-10-11T03:01:57.915Z,97728.66
2022-10-11T03:04:37.730Z,97723.38
2022-10-11T03:07:17.436Z,97732.16
2022-10-11T03:09:57.239Z,97741.09
2022-10-11T03:12:37.077Z,97743.75
2022-10-11T03:15:16.872Z,97743.88
2022-10-11T03:17:57.340Z,97744.56
2022-10-11T03:20:38.201Z,97746.53
2022-10-11T03:23:18.036Z,97746.53
2022-10-11T03:25:59.200Z,97745.69
2022-10-11T03:28:39.050Z,97750.16
2022-10-11T03:31:20.541Z,97752.13
2022-10-11T03:34:00.424Z,97757.28
2022-10-11T03:36:40.178Z,97765.22
2022-10-11T03:39:20.096Z,97768.88
2022-10-11T03:42:01.314Z,97773.31
2022-10-11T03:44:42.229Z,97772.63
2022-10-11T03:47:22.490Z,97768.16
2022-10-11T03:50:02.707Z,97763.84
2022-10-11T03:52:43.905Z,97780.59
2022-10-11T03:55:25.127Z,97786.88
2022-10-11T03:58:06.986Z,97786.88
2022-10-11T04:00:47.985Z,97778.91
2022-10-11T04:03:27.782Z,97780.84
2022-10-11T04:06:08.636Z,97784.34
2022-10-11T04:08:49.034Z,97784.50
2022-10-11T04:11:29.018Z,97785.31
2022-10-11T04:14:10.219Z,97783.66
2022-10-11T04:16:50.058Z,97788.13
2022-10-11T04:19:29.934Z,97786.44
2022-10-11T04:22:11.404Z,97793.41
2022-10-11T04:24:54.849Z,97798.06
2022-10-11T04:27:36.068Z,97796.25
2022-10-11T04:30:17.465Z,97801.53
2022-10-11T04:32:58.316Z,97805.16
2022-10-11T04:35:38.502Z,97806.16
2022-10-11T04:38:19.588Z,97806.16
2022-10-11T04:41:08.681Z,97800.84
2022-10-11T04:43:49.279Z,97816.88
2022-10-11T04:46:30.729Z,97813.25
2022-10-11T04:49:14.301Z,97818.69
2022-10-11T04:51:54.646Z,97811.59
2022-10-11T04:54:36.708Z,97814.38
2022-10-11T04:57:25.645Z,97815.22
2022-10-11T05:00:07.822Z,97816.19
2022-10-11T05:02:48.288Z,97809.91
2022-10-11T05:05:28.097Z,97818.00
2022-10-11T05:08:09.573Z,97817.31
2022-10-11T05:10:57.843Z,97830.41
2022-10-11T05:13:39.171Z,97819.94
2022-10-11T05:16:20.172Z,97827.91
2022-10-11T05:19:01.337Z,97828.03
2022-10-11T05:21:43.254Z,97827.19
2022-10-11T05:24:24.537Z,97823.72
2022-10-11T05:27:07.720Z,97834.31
2022-10-11T05:29:51.626Z,97837.81
2022-10-11T05:32:32.351Z,97826.50
2022-10-11T05:35:13.070Z,97837.94
2022-10-11T05:37:52.875Z,97836.13
2022-10-11T05:40:33.390Z,97845.91
2022-10-11T05:43:14.867Z,97847.72
2022-10-11T05:45:55.578Z,97847.84
2022-10-11T05:48:36.011Z,97864.59
2022-10-11T05:51:16.844Z,97864.72
2022-10-11T05:53:58.223Z,97862.91
2022-10-11T05:56:40.185Z,97864.72
2022-10-11T05:59:21.472Z,97872.66
2022-10-11T06:02:02.754Z,97864.84
2022-10-11T06:04:44.353Z,97869.31
2022-10-11T06:07:25.024Z,97877.28
2022-10-11T06:10:07.734Z,97879.06
2022-10-11T06:12:53.761Z,97869.41
2022-10-11T06:15:47.780Z,97877.38
2022-10-11T06:18:45.600Z,97870.25
2022-10-11T06:21:55.174Z,97880.03
2022-10-11T06:24:53.964Z,97889.78
2022-10-11T06:27:52.820Z,97887.28
2022-10-11T06:30:57.101Z,97895.09
2022-10-11T06:33:55.375Z,97889.91
2022-10-11T06:37:03.974Z,97907.63
2022-10-11T06:39:57.476Z,97902.34
2022-10-11T06:42:51.780Z,97904.16
2022-10-11T06:45:46.449Z,97904.97
2022-10-11T06:48:45.489Z,97907.50
2022-10-11T06:51:48.074Z,97902.34
2022-10-11T06:54:46.623Z,97904.16
2022-10-11T06:57:49.487Z,97908.59
2022-10-11T07:01:03.159Z,97910.28
2022-10-11T07:04:00.654Z,97910.28
2022-10-11T07:06:55.032Z,97912.94
2022-10-11T07:09:52.006Z,97919.22
2022-10-11T07:12:49.387Z,97922.56
2022-10-11T07:15:46.001Z,97925.22
2022-10-11T07:19:00.796Z,97923.41
2022-10-11T07:21:54.734Z,97928.69
2022-10-11T07:24:49.680Z,97930.38
2022-10-11T07:27:48.034Z,97932.94
2022-10-11T07:30:45.146Z,97935.59
2022-10-11T07:33:43.949Z,97941.81
2022-10-11T07:36:42.329Z,97939.16
2022-10-11T07:39:42.090Z,97948.94
2022-10-11T07:42:36.647Z,97948.09
2022-10-11T07:45:45.274Z,97947.25
2022-10-11T07:48:41.594Z,97950.75
2022-10-11T07:51:37.817Z,97951.59
2022-10-11T07:54:33.598Z,97940.16
2022-10-11T07:57:37.398Z,97949.78
2022-10-11T08:00:33.954Z,97947.97
2022-10-11T08:03:31.013Z,97948.84
2022-10-11T08:06:32.420Z,97948.84
2022-10-11T08:09:30.122Z,97950.50
2022-10-11T08:12:28.700Z,97953.03
2022-10-11T08:15:27.284Z,97951.34
2022-10-11T08:18:39.609Z,97946.88
2022-10-11T08:21:33.667Z,97949.28
2022-10-11T08:24:38.015Z,97950.94
2022-10-11T08:27:32.954Z,97950.81
2022-10-11T08:30:27.015Z,97952.34
2022-10-11T08:33:29.364Z,97954.03
2022-10-11T08:36:34.263Z,97958.38
2022-10-11T08:39:32.095Z,97954.75
2022-10-11T08:42:39.341Z,97955.44
2022-10-11T08:45:36.188Z,97958.75
2022-10-11T08:48:38.439Z,97959.47
2022-10-11T08:51:36.874Z,97961.16
2022-10-11T08:54:39.466Z,97953.19
2022-10-11T08:57:49.588Z,97959.19
2022-10-11T09:00:46.115Z,97968.00
2022-10-11T09:03:35.595Z,97960.88
2022-10-11T09:06:22.834Z,97960.88
2022-10-11T09:09:14.802Z,97967.84
2022-10-11T09:12:05.439Z,97964.94
2022-10-11T09:15:02.145Z,97963.97
2022-10-11T09:17:52.761Z,97964.81
2022-10-11T09:20:45.839Z,97962.84
2022-10-11T09:23:38.979Z,97961.88
2022-10-11T09:26:24.602Z,97968.03
2022-10-11T09:29:01.419Z,97971.50
2022-10-11T09:31:31.617Z,97965.38
2022-10-11T09:34:02.194Z,97970.66
2022-10-11T09:36:36.199Z,97968.03
2022-10-11T09:39:10.817Z,97971.66
2022-10-11T09:41:44.721Z,97964.53
2022-10-11T09:44:19.744Z,97970.81
2022-10-11T09:46:48.615Z,97968.16
2022-10-11T09:49:20.004Z,97962.84
2022-10-11T09:51:52.335Z,97964.66
2022-10-11T09:54:27.231Z,97967.31
2022-10-11T09:56:57.275Z,97974.31
2022-10-11T09:59:27.945Z,97970.81
2022-10-11T10:02:20.419Z,97967.19
2022-10-11T10:05:10.204Z,97962.59
2022-10-11T10:07:41.043Z,97964.41
2022-10-11T10:10:28.580Z,97966.06
2022-10-11T10:13:00.475Z,97972.06
2022-10-11T10:15:31.066Z,97966.78
2022-10-11T10:18:00.062Z,97966.78
2022-10-11T10:20:31.651Z,97970.13
2022-10-11T10:23:03.812Z,97972.78
2022-10-11T10:25:35.947Z,97963.00
2022-10-11T10:28:20.787Z,97961.19
2022-10-11T10:30:54.566Z,97968.19
2022-10-11T10:33:24.140Z,97968.88
2022-10-11T10:35:56.533Z,97975.47
2022-10-11T10:38:28.532Z,97965.84
2022-10-11T10:40:59.145Z,97966.69
2022-10-11T10:43:31.130Z,97963.31
2022-10-11T10:46:20.450Z,97972.13
2022-10-11T10:51:53.324Z,97965.00
2022-10-11T10:54:30.334Z,97961.50
2022-10-11T10:57:12.622Z,97964.16
2022-10-11T10:59:55.350Z,97966.81
2022-10-11T11:02:40.329Z,97962.34
2022-10-11T11:05:24.554Z,97965.00
2022-10-11T11:07:55.957Z,97961.50
2022-10-11T11:10:28.448Z,97967.78
2022-10-11T11:13:19.327Z,97966.81
2022-10-11T11:15:54.589Z,97974.78
2022-10-11T11:18:30.073Z,97965.84
2022-10-11T11:21:09.891Z,97967.66
2022-10-11T11:23:42.235Z,97964.88
2022-10-11T11:26:15.471Z,97961.25
2022-10-11T11:28:58.806Z,97954.97
2022-10-11T11:31:52.487Z,97957.34
2022-10-11T11:34:23.721Z,97958.03
2022-10-11T11:36:56.962Z,97955.09
2022-10-11T11:39:27.855Z,97959.16
2022-10-11T11:41:59.352Z,97957.91
2022-10-11T11:44:31.340Z,97952.59
2022-10-11T11:47:03.608Z,97950.66
2022-10-11T11:49:35.880Z,97951.63
2022-10-11T11:52:05.897Z,97949.94
2022-10-11T11:54:43.557Z,97944.78
2022-10-11T11:57:19.806Z,97948.41
2022-10-11T11:59:53.458Z,97948.41
2022-10-11T12:02:40.407Z,97943.94
2022-10-11T12:05:10.273Z,97948.97
2022-10-11T12:07:53.892Z,97949.81
2022-10-11T12:10:28.802Z,97948.84
2022-10-11T12:13:31.979Z,97947.16
2022-10-11T12:16:11.134Z,97951.63
2022-10-11T12:19:08.211Z,97948.28
2022-10-11T12:21:38.119Z,97949.09
2022-10-11T12:24:12.467Z,97945.63
2022-10-11T12:26:44.027Z,97946.44
2022-10-11T12:29:48.584Z,97935.00
2022-10-11T12:32:53.541Z,97939.19
2022-10-11T12:35:52.118Z,97940.88
2022-10-11T12:38:22.926Z,97937.25
2022-10-11T12:40:54.323Z,97942.53
2022-10-11T12:43:36.204Z,97944.22
2022-10-11T12:46:43.200Z,97947.72
2022-10-11T12:49:42.562Z,97940.44
2022-10-11T12:52:27.309Z,97937.81
2022-10-11T12:55:04.501Z,97932.22
2022-10-11T12:57:47.364Z,97935.69
2022-10-11T13:00:21.807Z,97928.56
2022-10-11T13:02:50.725Z,97936.41
2022-10-11T13:05:23.656Z,97921.31
2022-10-11T13:07:54.229Z,97929.66
2022-10-11T13:10:26.305Z,97930.25
2022-10-11T13:12:55.327Z,97929.69
2022-10-11T13:15:24.325Z,97928.44
2022-10-11T13:18:00.207Z,97925.50
2022-10-11T13:20:32.297Z,97923.53
2022-10-11T13:23:02.302Z,97912.63
2022-10-11T13:25:38.011Z,97912.34
2022-10-11T13:28:09.997Z,97918.34
2022-10-11T13:30:39.753Z,97912.75
2022-10-11T13:33:14.443Z,97918.75
2022-10-11T13:35:42.848Z,97918.91
2022-10-11T13:38:22.218Z,97909.53
2022-10-11T13:40:51.309Z,97907.19
2022-10-11T13:43:21.815Z,97916.13
2022-10-11T13:45:50.391Z,97918.09
2022-10-11T13:48:19.445Z,97914.59
2022-10-11T13:51:06.351Z,97912.78
2022-10-11T13:53:36.238Z,97914.44
2022-10-11T13:56:07.425Z,97915.41
2022-10-11T13:58:38.783Z,97915.41
2022-10-11T14:01:17.597Z,97909.97
2022-10-11T14:03:48.441Z,97902.84
2022-10-11T14:06:16.900Z,97896.41
2022-10-11T14:08:50.139Z,97897.25
2022-10-11T14:11:33.954Z,97896.97
2022-10-11T14:14:02.536Z,97895.41
2022-10-11T14:16:32.017Z,97895.25
2022-10-11T14:19:10.885Z,97895.97
2022-10-11T14:21:52.509Z,97889.66
2022-10-11T14:24:22.673Z,97904.47
2022-10-11T14:26:53.262Z,97903.63
2022-10-11T14:29:24.707Z,97898.44
2022-10-11T14:32:02.155Z,97907.69
2022-10-11T14:34:31.246Z,97909.94
2022-10-11T14:36:59.691Z,97915.38
2022-10-11T14:39:32.314Z,97914.56
2022-10-11T14:42:00.960Z,97915.38
2022-10-11T14:44:29.481Z,97912.88
2022-10-11T14:46:58.018Z,97908.41
2022-10-11T14:49:27.853Z,97917.34
2022-10-11T14:51:58.265Z,97917.34
2022-10-11T14:54:30.970Z,97915.53
2022-10-11T14:57:01.553Z,97922.38
2022-10-11T14:59:34.208Z,97921.53
2022-10-11T15:02:03.103Z,97921.41
2022-10-11T15:04:31.631Z,97910.91
2022-10-11T15:07:00.171Z,97913.56
2022-10-11T15:09:32.769Z,97911.75
2022-10-11T15:12:01.196Z,97911.06
2022-10-11T15:14:29.628Z,97908.41
2022-10-11T15:16:58.090Z,97904.91
2022-10-11T15:19:26.682Z,97919.16
2022-10-11T15:21:55.216Z,97920.00
2022-10-11T15:24:23.902Z,97907.84
2022-10-11T15:26:53.740Z,97908.69
2022-10-11T15:29:24.066Z,97914.00
2022-10-11T15:31:52.601Z,97906.19
2022-10-11T15:34:21.294Z,97908.84
2022-10-11T15:36:50.108Z,97914.16
2022-10-11T15:39:26.569Z,97903.66
2022-10-11T15:41:56.470Z,97908.00
2022-10-11T15:44:25.158Z,97903.66
2022-10-11T15:46:56.223Z,97908.97
2022-10-11T15:49:24.981Z,97910.78
2022-10-11T15:51:53.648Z,97906.47
2022-10-11T15:54:22.124Z,97902.97
2022-10-11T15:56:50.555Z,97902.00
2022-10-11T15:59:20.370Z,97906.47
2022-10-11T16:01:48.845Z,97898.50
2022-10-11T16:04:17.332Z,97902.00
2022-10-11T16:06:45.729Z,97899.47
2022-10-11T16:09:14.291Z,97895.00
2022-10-11T16:11:42.750Z,97903.94
2022-10-11T16:14:11.269Z,97907.44
2022-10-11T16:16:41.125Z,97895.97
2022-10-11T16:19:09.558Z,97909.25
2022-10-11T16:21:38.475Z,97896.97
2022-10-11T16:24:07.187Z,97896.13
2022-10-11T16:26:35.887Z,97892.78
2022-10-11T16:29:04.712Z,97896.25
2022-10-11T16:31:33.417Z,97890.13
2022-10-11T16:34:03.590Z,97895.28
2022-10-11T16:36:40.662Z,97902.41
2022-10-11T16:39:12.406Z,97898.22
2022-10-11T16:41:41.306Z,97903.41
2022-10-11T16:44:13.240Z,97902.56
2022-10-11T16:46:42.388Z,97908.56
2022-10-11T16:49:12.533Z,97917.50
2022-10-11T16:51:41.279Z,97919.34
2022-10-11T16:54:10.371Z,97923.81
2022-10-11T16:56:40.044Z,97919.34
2022-10-11T16:59:08.903Z,97918.63
2022-10-11T17:01:37.962Z,97927.44
2022-10-11T17:04:06.608Z,97925.63
2022-10-11T17:06:36.580Z,97926.59
2022-10-11T17:09:05.545Z,97925.75
2022-10-11T17:11:34.654Z,97935.53
2022-10-11T17:14:05.110Z,97931.06
2022-10-11T17:16:34.275Z,97929.41
2022-10-11T17:19:03.254Z,97934.72
2022-10-11T17:21:31.836Z,97934.72
2022-10-11T17:24:01.601Z,97935.53
2022-10-11T17:26:30.492Z,97943.66
2022-10-11T17:29:00.360Z,97932.06
2022-10-11T17:31:29.672Z,97926.88
2022-10-11T17:33:59.951Z,97933.03
2022-10-11T17:36:32.022Z,97926.03
2022-10-11T17:39:03.432Z,97928.69
2022-10-11T17:41:32.517Z,97939.31
2022-10-11T17:44:02.997Z,97922.56
2022-10-11T17:46:32.924Z,97927.88
2022-10-11T17:49:04.678Z,97933.19
2022-10-11T17:51:34.149Z,97929.69
2022-10-11T17:54:04.615Z,97926.19
2022-10-11T17:56:37.631Z,97925.50
2022-10-11T17:59:06.912Z,97929.81
2022-10-11T18:01:35.962Z,97936.13
2022-10-11T18:04:06.295Z,97933.47
2022-10-11T18:06:39.359Z,97931.63
2022-10-11T18:09:09.158Z,97932.63
2022-10-11T18:11:37.705Z,97935.28
2022-10-11T18:14:06.359Z,97935.41
2022-10-11T18:16:36.839Z,97932.75
2022-10-11T18:19:07.080Z,97931.91
2022-10-11T18:21:37.726Z,97931.91
2022-10-11T18:24:07.895Z,97937.22
2022-10-11T18:26:37.824Z,97934.72
2022-10-11T18:29:06.418Z,97932.91
2022-10-11T18:31:35.823Z,97922.41
2022-10-11T18:34:05.618Z,97916.28
2022-10-11T18:36:34.648Z,97923.41
2022-10-11T18:39:06.826Z,97917.25
2022-10-11T18:41:38.693Z,97922.56
2022-10-11T18:44:08.938Z,97918.22
2022-10-11T18:46:37.578Z,97915.44
2022-10-11T18:49:06.400Z,97921.72
2022-10-11T18:51:36.809Z,97926.19
2022-10-11T18:54:05.608Z,97922.69
2022-10-11T18:56:37.572Z,97920.88
2022-10-11T18:59:06.924Z,97924.53
2022-10-11T19:01:38.019Z,97924.53
2022-10-11T19:04:08.430Z,97926.34
2022-10-11T19:06:39.258Z,97925.50
2022-10-11T19:09:10.248Z,97926.47
2022-10-11T19:11:40.920Z,97927.31
2022-10-11T19:14:11.594Z,97928.44
2022-10-11T19:16:42.996Z,97928.28
2022-10-11T19:19:12.530Z,97929.41
2022-10-11T19:21:41.650Z,97927.47
2022-10-11T19:24:10.580Z,97931.94
2022-10-11T19:26:41.414Z,97925.91
2022-10-11T19:29:11.384Z,97927.75
2022-10-11T19:31:43.096Z,97923.41
2022-10-11T19:34:12.022Z,97926.06
2022-10-11T19:36:42.187Z,97927.75
2022-10-11T19:39:12.180Z,97926.06
2022-10-11T19:41:42.519Z,97937.53
2022-10-11T19:44:11.818Z,97930.53
2022-10-11T19:46:57.517Z,97925.22
2022-10-11T19:49:27.909Z,97926.06
2022-10-11T19:51:56.887Z,97930.66
2022-10-11T19:54:26.562Z,97937.75
2022-10-11T19:56:56.507Z,97928.97
2022-10-11T19:59:26.843Z,97936.94
2022-10-11T20:01:55.435Z,97938.59
2022-10-11T20:07:13.002Z,97935.28
2022-10-11T20:09:41.666Z,97939.59
2022-10-11T20:12:11.730Z,97930.94
2022-10-11T20:14:40.334Z,97936.94
2022-10-11T20:17:08.839Z,97929.13
2022-10-11T20:19:37.478Z,97938.91
2022-10-11T20:22:05.955Z,97931.09
2022-10-11T20:24:34.646Z,97934.72
2022-10-11T20:27:07.527Z,97938.22
2022-10-11T20:29:37.435Z,97934.59
2022-10-11T20:32:05.975Z,97932.06
2022-10-11T20:34:36.506Z,97931.22
2022-10-11T20:37:05.026Z,97925.94
2022-10-11T20:39:33.563Z,97925.94
2022-10-11T20:42:02.023Z,97927.88
2022-10-11T20:44:30.487Z,97937.53
2022-10-11T20:47:03.821Z,97935.69
2022-10-11T20:49:32.835Z,97939.19
2022-10-11T20:52:01.412Z,97933.06
2022-10-11T20:54:30.693Z,97936.69
2022-10-11T20:57:00.223Z,97934.88
2022-10-11T20:59:28.845Z,97946.47
2022-10-11T21:01:57.377Z,97945.63
2022-10-11T21:04:27.200Z,97945.63
2022-10-11T21:06:55.822Z,97944.78
2022-10-11T21:09:24.247Z,97944.91
2022-10-11T21:11:53.057Z,97937.66
2022-10-11T21:14:21.556Z,97937.81
2022-10-11T21:16:50.183Z,97941.28
2022-10-11T21:19:18.811Z,97942.28
2022-10-11T21:21:53.519Z,97936.13
2022-10-11T21:24:22.586Z,97939.63
2022-10-11T21:26:51.220Z,97929.00
2022-10-11T21:29:19.950Z,97936.13
2022-10-11T21:31:48.524Z,97929.97
2022-10-11T21:34:17.050Z,97932.63
2022-10-11T21:36:45.475Z,97936.13
2022-10-11T21:39:15.340Z,97937.94
2022-10-11T21:41:43.772Z,97932.78
2022-10-11T21:44:12.588Z,97937.09
2022-10-11T21:47:04.981Z,97944.22
2022-10-11T21:49:29.656Z,97940.72
2022-10-11T21:51:58.149Z,97932.78
2022-10-11T21:54:28.059Z,97932.78
2022-10-11T21:56:56.626Z,97940.03
2022-10-11T21:59:25.216Z,97941.72
2022-10-11T22:01:56.935Z,97933.03
2022-10-11T22:04:27.807Z,97936.69
2022-10-11T22:06:56.293Z,97935.69
2022-10-11T22:09:24.994Z,97933.19
2022-10-11T22:11:54.808Z,97938.34
2022-10-11T22:14:23.275Z,97937.50
2022-10-11T22:16:52.317Z,97939.34
2022-10-11T22:19:21.116Z,97940.16
2022-10-11T22:21:49.535Z,97933.31
2022-10-11T22:24:17.966Z,97942.13
2022-10-11T22:26:46.545Z,97942.13
2022-10-11T22:29:16.580Z,97934.16
2022-10-11T22:31:45.001Z,97933.31
2022-10-11T22:34:13.466Z,97933.31
2022-10-11T22:36:42.291Z,97922.72
2022-10-11T22:39:11.369Z,97929.97
2022-10-11T22:41:39.793Z,97931.66
2022-10-11T22:44:08.317Z,97928.03
2022-10-11T22:46:38.084Z,97927.31
2022-10-11T22:49:06.756Z,97932.63
2022-10-11T22:51:35.187Z,97929.97
2022-10-11T22:54:03.697Z,97932.63
2022-10-11T22:56:32.211Z,97936.13
2022-10-11T22:59:00.595Z,97935.28
2022-10-11T23:01:29.054Z,97929.97
2022-10-11T23:03:58.899Z,97927.47
2022-10-11T23:06:27.386Z,97928.28
2022-10-11T23:08:55.803Z,97935.41
2022-10-11T23:11:24.215Z,97933.59
2022-10-11T23:13:52.640Z,97922.28
2022-10-11T23:16:21.202Z,97932.91
2022-10-11T23:18:50.096Z,97935.56
2022-10-11T23:21:20.138Z,97926.75
2022-10-11T23:23:48.739Z,97927.59
2022-10-11T23:26:17.742Z,97921.44
2022-10-11T23:28:46.251Z,97917.13
2022-10-11T23:31:16.410Z,97919.78
2022-10-11T23:33:45.157Z,97923.25
2022-10-11T23:36:19.197Z,97929.41
2022-10-11T23:38:51.143Z,97924.25
2022-10-11T23:41:19.764Z,97929.56
2022-10-11T23:43:48.443Z,97934.84
2022-10-11T23:46:16.804Z,97933.19
2022-10-11T23:48:45.103Z,97929.56
2022-10-11T23:51:13.966Z,97919.91
2022-10-11T23:53:43.689Z,97924.38
2022-10-11T23:56:12.861Z,97918.25
2022-10-11T23:58:41.393Z,97915.59
